createdAt,value
2023-01-09T00:01:45.401Z,8.30
2023-01-09T00:04:14.364Z,8.30
2023-01-09T00:06:43.558Z,8.10
2023-01-09T00:09:12.346Z,8.30
2023-01-09T00:11:40.474Z,8.10
2023-01-09T00:14:10.911Z,8.20
2023-01-09T00:21:38.148Z,8.30
2023-01-09T00:26:35.830Z,8.00
2023-01-09T00:29:03.953Z,8.80
2023-01-09T00:31:32.431Z,8.00
2023-01-09T00:34:06.709Z,8.40
2023-01-09T00:39:03.856Z,8.10
2023-01-09T00:41:41.127Z,8.10
2023-01-09T00:44:26.195Z,8.40
2023-01-09T00:47:03.237Z,8.70
2023-01-09T00:49:35.902Z,8.30
2023-01-09T00:52:06.728Z,8.50
2023-01-09T00:54:35.065Z,8.30
2023-01-09T00:57:03.298Z,8.30
2023-01-09T01:02:00.356Z,8.50
2023-01-09T01:07:31.862Z,8.10
2023-01-09T01:12:28.410Z,8.70
2023-01-09T01:17:25.598Z,8.20
2023-01-09T01:19:53.719Z,8.10
2023-01-09T01:29:47.473Z,8.00
2023-01-09T01:34:46.360Z,8.20
2023-01-09T01:39:44.304Z,8.20
2023-01-09T01:42:15.023Z,8.60
2023-01-09T01:45:03.883Z,8.40
2023-01-09T01:50:11.540Z,8.90
2023-01-09T01:52:40.154Z,8.80
2023-01-09T01:55:10.799Z,8.30
2023-01-09T01:57:44.352Z,8.60
2023-01-09T02:00:13.927Z,8.70
2023-01-09T02:02:43.667Z,8.60
2023-01-09T02:10:10.119Z,8.80
2023-01-09T02:15:17.431Z,9.00
2023-01-09T02:18:48.204Z,8.90
2023-01-09T02:21:43.453Z,8.70
2023-01-09T02:24:48.906Z,8.70
2023-01-09T02:27:57.060Z,9.20
2023-01-09T02:30:40.205Z,8.40
2023-01-09T02:33:26.285Z,8.70
2023-01-09T02:36:13.408Z,8.50
2023-01-09T02:38:56.217Z,9.30
2023-01-09T02:41:39.373Z,8.50
2023-01-09T02:44:19.429Z,8.60
2023-01-09T02:49:18.756Z,8.80
2023-01-09T02:51:54.481Z,8.50
2023-01-09T02:54:44.040Z,8.50
2023-01-09T02:57:32.857Z,8.80
2023-01-09T03:00:45.851Z,8.50
2023-01-09T03:05:57.238Z,8.60
2023-01-09T03:08:39.539Z,9.10
2023-01-09T03:11:09.374Z,8.60
2023-01-09T03:13:56.628Z,8.60
2023-01-09T03:16:37.516Z,8.60
2023-01-09T03:19:15.804Z,8.20
2023-01-09T03:21:46.295Z,8.10
2023-01-09T03:26:43.319Z,8.20
2023-01-09T03:31:40.005Z,8.20
2023-01-09T03:34:08.188Z,8.20
2023-01-09T03:44:02.165Z,8.00
2023-01-09T03:49:00.054Z,8.40
2023-01-09T04:01:22.455Z,8.00
2023-01-09T04:03:50.631Z,7.80
2023-01-09T04:08:47.244Z,8.30
2023-01-09T04:11:17.649Z,8.00
2023-01-09T04:13:46.111Z,8.30
2023-01-09T04:18:42.742Z,8.00
2023-01-09T04:23:39.340Z,8.20
2023-01-09T04:26:07.960Z,8.00
2023-01-09T04:38:31.236Z,8.00
2023-01-09T04:43:27.721Z,8.40
2023-01-09T04:48:24.470Z,8.70
2023-01-09T04:53:21.161Z,8.10
2023-01-09T04:55:49.270Z,7.70
2023-01-09T05:03:14.260Z,8.00
2023-01-09T05:08:10.805Z,8.20
2023-01-09T05:10:38.833Z,7.70
2023-01-09T05:13:06.848Z,7.90
2023-01-09T05:15:34.913Z,8.50
2023-01-09T05:18:03.033Z,8.00
2023-01-09T05:20:31.145Z,8.30
2023-01-09T05:22:59.234Z,8.30
2023-01-09T05:27:55.805Z,8.50
2023-01-09T05:30:23.871Z,8.10
2023-01-09T05:42:46.600Z,8.70
2023-01-09T05:47:46.481Z,8.30
2023-01-09T05:50:15.708Z,8.10
2023-01-09T05:55:14.197Z,8.20
2023-01-09T05:57:42.760Z,8.20
2023-01-09T06:00:11.799Z,8.20
2023-01-09T06:05:09.781Z,8.10
2023-01-09T06:10:18.133Z,8.30
2023-01-09T06:12:51.456Z,8.30
2023-01-09T06:15:20.636Z,8.10
2023-01-09T06:17:49.301Z,8.40
2023-01-09T06:20:17.638Z,8.00
2023-01-09T06:22:45.937Z,8.70
2023-01-09T06:32:40.439Z,8.10
2023-01-09T06:35:09.025Z,9.00
2023-01-09T06:40:06.322Z,9.00
2023-01-09T06:45:02.845Z,8.10
2023-01-09T06:52:27.869Z,8.40
2023-01-09T06:57:24.365Z,8.10
2023-01-09T07:02:22.983Z,8.30
2023-01-09T07:09:50.548Z,8.10
2023-01-09T07:22:12.696Z,8.70
2023-01-09T07:29:37.571Z,9.00
2023-01-09T07:51:56.581Z,8.80
2023-01-09T07:56:53.231Z,8.90
2023-01-09T07:59:21.322Z,9.20
2023-01-09T08:01:49.538Z,8.70
2023-01-09T08:11:43.588Z,9.10
2023-01-09T08:14:11.669Z,8.70
2023-01-09T08:16:39.753Z,8.90
2023-01-09T08:19:07.805Z,9.30
2023-01-09T08:33:58.381Z,9.50
2023-01-09T08:41:40.555Z,9.40
2023-01-09T08:47:06.819Z,9.90
2023-01-09T08:49:37.320Z,9.90
2023-01-09T08:52:07.515Z,9.70
2023-01-09T08:57:08.495Z,9.30
2023-01-09T09:02:05.106Z,9.40
2023-01-09T09:29:39.690Z,10.20
2023-01-09T09:45:14.569Z,10.20
2023-01-09T09:48:38.160Z,10.10
2023-01-09T09:51:44.738Z,10.20
2023-01-09T09:54:29.287Z,9.50
2023-01-09T09:57:02.435Z,10.00
2023-01-09T09:59:34.776Z,10.00
2023-01-09T10:02:23.761Z,9.90
2023-01-09T10:05:12.604Z,10.00
2023-01-09T10:07:49.745Z,9.90
2023-01-09T10:10:26.306Z,9.90
2023-01-09T10:13:20.770Z,9.90
2023-01-09T10:16:11.334Z,9.90
2023-01-09T10:19:10.455Z,10.10
2023-01-09T10:22:15.829Z,10.20
2023-01-09T10:25:21.428Z,10.30
2023-01-09T10:28:22.945Z,10.10
2023-01-09T10:31:21.913Z,10.40
2023-01-09T10:34:25.492Z,9.70
2023-01-09T10:37:02.659Z,10.00
2023-01-09T10:39:48.557Z,10.00
2023-01-09T10:42:38.985Z,10.00
2023-01-09T10:45:20.677Z,10.00
2023-01-09T10:47:49.684Z,10.10
2023-01-09T10:50:28.228Z,10.80
2023-01-09T10:52:58.630Z,10.10
2023-01-09T10:55:48.383Z,10.60
2023-01-09T10:58:20.226Z,10.60
2023-01-09T11:00:49.911Z,10.40
2023-01-09T11:03:23.379Z,10.40
2023-01-09T11:06:00.773Z,10.40
2023-01-09T11:08:42.186Z,10.40
2023-01-09T11:11:13.009Z,10.40
2023-01-09T11:16:22.004Z,10.30
2023-01-09T11:18:57.700Z,10.30
2023-01-09T11:21:38.095Z,10.40
2023-01-09T11:24:21.640Z,9.80
2023-01-09T11:26:56.354Z,9.80
2023-01-09T11:29:25.516Z,10.00
2023-01-09T11:32:01.723Z,10.20
2023-01-09T11:34:33.831Z,10.00
2023-01-09T11:37:10.709Z,10.00
2023-01-09T11:39:41.838Z,9.90
2023-01-09T11:42:43.028Z,9.70
2023-01-09T11:45:22.279Z,9.70
2023-01-09T11:50:23.495Z,9.80
2023-01-09T11:53:21.048Z,9.80
2023-01-09T11:56:03.327Z,9.90
2023-01-09T11:58:35.191Z,9.80
2023-01-09T12:01:31.817Z,9.70
2023-01-09T12:04:35.867Z,9.70
2023-01-09T12:13:00.901Z,9.70
2023-01-09T12:16:33.827Z,9.30
2023-01-09T12:19:26.651Z,9.60
2023-01-09T12:22:15.979Z,9.40
2023-01-09T12:25:09.721Z,9.90
2023-01-09T12:28:13.411Z,9.60
2023-01-09T12:31:05.323Z,10.10
2023-01-09T12:33:49.815Z,10.10
2023-01-09T12:36:31.507Z,10.10
2023-01-09T12:39:34.034Z,10.40
2023-01-09T12:42:42.539Z,10.30
2023-01-09T12:45:44.333Z,10.70
2023-01-09T12:48:49.608Z,9.80
2023-01-09T12:51:44.745Z,10.30
2023-01-09T12:56:52.555Z,10.40
2023-01-09T12:59:55.591Z,10.20
2023-01-09T13:02:41.717Z,10.40
2023-01-09T13:05:21.080Z,10.30
2023-01-09T13:07:54.800Z,10.10
2023-01-09T13:10:33.360Z,10.10
2023-01-09T13:13:14.561Z,10.50
2023-01-09T13:15:58.427Z,9.80
2023-01-09T13:18:53.311Z,10.10
2023-01-09T13:21:22.117Z,10.50
2023-01-09T13:24:12.278Z,10.00
2023-01-09T13:26:59.529Z,10.10
2023-01-09T13:29:41.430Z,10.00
2023-01-09T13:32:24.765Z,9.70
2023-01-09T13:34:57.368Z,9.90
2023-01-09T13:37:37.921Z,10.00
2023-01-09T13:40:27.858Z,9.90
2023-01-09T13:43:09.894Z,9.90
2023-01-09T13:45:40.948Z,9.60
2023-01-09T13:48:14.134Z,9.80
2023-01-09T13:50:43.660Z,10.00
2023-01-09T13:53:20.461Z,10.00
2023-01-09T13:56:00.911Z,10.00
2023-01-09T13:58:39.644Z,9.90
2023-01-09T14:01:27.221Z,10.00
2023-01-09T14:04:21.415Z,10.70
2023-01-09T14:07:21.477Z,10.20
2023-01-09T14:10:07.494Z,9.80
2023-01-09T14:12:42.165Z,9.70
2023-01-09T14:15:39.633Z,9.80
2023-01-09T14:18:12.011Z,9.80
2023-01-09T14:20:55.783Z,11.70
2023-01-09T14:23:50.791Z,9.90
2023-01-09T14:26:27.368Z,11.80
2023-01-09T14:29:30.425Z,9.60
2023-01-09T14:32:34.158Z,9.90
2023-01-09T14:35:24.522Z,9.60
2023-01-09T14:38:45.258Z,9.40
2023-01-09T14:42:06.184Z,9.70
2023-01-09T14:45:06.750Z,10.00
2023-01-09T14:48:01.329Z,9.50
2023-01-09T14:50:51.025Z,9.50
2023-01-09T14:53:31.177Z,9.50
2023-01-09T14:56:06.074Z,9.40
2023-01-09T14:58:38.377Z,9.20
2023-01-09T15:01:11.584Z,9.60
2023-01-09T15:03:59.325Z,9.30
2023-01-09T15:06:38.445Z,9.70
2023-01-09T15:09:24.503Z,9.20
2023-01-09T15:12:02.413Z,9.20
2023-01-09T15:14:45.979Z,9.10
2023-01-09T15:17:36.335Z,8.90
2023-01-09T15:20:08.882Z,9.40
2023-01-09T15:22:39.065Z,9.40
2023-01-09T15:25:37.740Z,8.90
2023-01-09T15:28:44.607Z,9.00
2023-01-09T15:31:18.239Z,8.70
2023-01-09T15:33:48.859Z,8.40
2023-01-09T15:36:31.049Z,8.50
2023-01-09T15:39:00.488Z,8.80
2023-01-09T15:41:50.126Z,8.80
2023-01-09T15:44:26.207Z,8.80
2023-01-09T15:46:59.546Z,8.30
2023-01-09T15:49:28.331Z,8.80
2023-01-09T15:54:35.331Z,11.30
2023-01-09T15:57:28.209Z,8.90
2023-01-09T15:59:58.825Z,8.80
2023-01-09T16:02:45.109Z,8.90
2023-01-09T16:05:21.007Z,8.50
2023-01-09T16:07:51.326Z,8.90
2023-01-09T16:10:26.668Z,8.90
2023-01-09T16:18:17.153Z,8.90
2023-01-09T16:20:46.924Z,9.00
2023-01-09T16:23:36.939Z,9.00
2023-01-09T16:26:13.899Z,8.90
2023-01-09T16:31:33.366Z,8.90
2023-01-09T16:34:07.060Z,9.00
2023-01-09T16:36:36.816Z,9.00
2023-01-09T16:49:28.761Z,9.00
2023-01-09T16:52:02.893Z,8.80
2023-01-09T16:54:31.584Z,8.80
2023-01-09T16:59:29.524Z,9.00
2023-01-09T17:04:26.466Z,9.30
2023-01-09T17:27:28.658Z,8.80
2023-01-09T17:34:54.066Z,8.50
2023-01-09T17:57:17.603Z,8.40
2023-01-09T17:59:46.304Z,8.40
2023-01-09T18:02:19.980Z,8.40
2023-01-09T18:07:18.746Z,8.20
2023-01-09T18:17:14.134Z,8.30
2023-01-09T18:19:42.593Z,8.10
2023-01-09T18:27:07.909Z,8.20
2023-01-09T18:59:22.644Z,8.20
2023-01-09T19:01:50.856Z,8.60
2023-01-09T19:09:53.384Z,8.30
2023-01-09T19:14:50.160Z,8.50
2023-01-09T19:17:18.272Z,8.20
2023-01-09T19:24:43.351Z,8.10
2023-01-09T19:34:37.200Z,7.70
2023-01-09T19:39:37.647Z,7.70
2023-01-09T19:59:26.867Z,7.20
2023-01-09T20:04:24.074Z,7.60
2023-01-09T20:09:22.647Z,7.90
2023-01-09T20:14:20.890Z,7.50
2023-01-09T20:24:17.634Z,7.40
2023-01-09T20:26:47.166Z,7.90
2023-01-09T20:34:15.478Z,7.40
2023-01-09T20:36:44.158Z,7.40
2023-01-09T20:39:13.682Z,7.90
2023-01-09T20:44:14.347Z,7.40
2023-01-09T20:46:47.879Z,7.20
2023-01-09T20:49:18.640Z,7.40
2023-01-09T20:51:53.242Z,7.40
2023-01-09T20:54:22.881Z,7.30
2023-01-09T20:59:22.203Z,9.70
2023-01-09T21:21:53.385Z,6.90
2023-01-09T21:36:51.781Z,7.00
2023-01-09T21:39:21.821Z,7.10
2023-01-09T21:57:17.552Z,7.10
2023-01-09T21:59:45.600Z,7.70
2023-01-09T22:02:15.894Z,7.10
2023-01-09T22:07:17.755Z,7.20
2023-01-09T22:17:11.435Z,7.50
2023-01-09T22:27:06.269Z,7.20
2023-01-09T22:32:03.017Z,7.20
2023-01-09T22:34:31.316Z,7.40
2023-01-09T22:36:59.521Z,6.90
2023-01-09T22:51:49.881Z,7.20
2023-01-09T22:54:18.068Z,7.60
2023-01-09T23:01:42.895Z,7.00
2023-01-09T23:04:14.892Z,7.00
2023-01-09T23:29:18.214Z,7.20
2023-01-09T23:31:46.953Z,6.50
2023-01-09T23:34:23.655Z,6.80
2023-01-09T23:36:53.574Z,6.80
2023-01-09T23:44:36.895Z,6.50
2023-01-09T23:47:05.318Z,6.40
2023-01-09T23:49:33.336Z,7.10
2023-01-09T23:57:02.735Z,6.70
